AUR634 EGJB-EGPH
Flight info
| Callsign | AUR634 |
|---|---|
| Flight time | 1h 56m |
| Altitude | 21000 |
| Route | ORIST Y110 THRED Z171 SAM Q41 SILVA M605 DTY Y53 SAPCO N57 POL N601 INPIP |
| Aircraft | AT76/M-SDFGIRY/S |
Departure
| Time | 2026-04-19 03:50 |
|---|---|
| Airport | Guernsey Airport (EGJB) |
Arrival
| Time | 2026-04-19 05:47 |
|---|---|
| Airport | Edinburgh Airport (EGPH) |
| Time | Latitude | Longitude | Altitude | Speed | Heading |
|---|---|---|---|---|---|
| 2026-04-19 03:41 | 49.43299 | -2.59465 | 340 ft | 0 kts | 179° |
| 2026-04-19 03:45 | 49.43300 | -2.59465 | 340 ft | 1 kts | 177° |
| 2026-04-19 03:45 | 49.43315 | -2.59467 | 340 ft | 2 kts | 177° |
| 2026-04-19 03:45 | 49.43330 | -2.59468 | 340 ft | 2 kts | 177° |
| 2026-04-19 03:45 | 49.43345 | -2.59469 | 340 ft | 2 kts | 177° |
| 2026-04-19 03:46 | 49.43360 | -2.59470 | 339 ft | 2 kts | 177° |
| 2026-04-19 03:46 | 49.43367 | -2.59470 | 339 ft | 0 kts | 178° |
| 2026-04-19 03:48 | 49.43366 | -2.59470 | 339 ft | 0 kts | 174° |
| 2026-04-19 03:49 | 49.43366 | -2.59404 | 338 ft | 11 kts | 83° |
| 2026-04-19 03:49 | 49.43372 | -2.59260 | 335 ft | 14 kts | 82° |
| 2026-04-19 03:49 | 49.43453 | -2.59199 | 334 ft | 14 kts | 356° |
| 2026-04-19 03:49 | 49.43520 | -2.59266 | 335 ft | 19 kts | 270° |
| 2026-04-19 03:50 | 49.43505 | -2.59838 | 330 ft | 88 kts | 268° |
| 2026-04-19 03:50 | 49.43474 | -2.61025 | 442 ft | 121 kts | 271° |
| 2026-04-19 03:50 | 49.43453 | -2.62308 | 839 ft | 122 kts | 271° |
| 2026-04-19 03:50 | 49.43420 | -2.63582 | 1211 ft | 120 kts | 271° |
| 2026-04-19 03:51 | 49.43385 | -2.64915 | 1419 ft | 131 kts | 270° |
| 2026-04-19 03:51 | 49.43342 | -2.66468 | 1486 ft | 156 kts | 270° |
| 2026-04-19 03:51 | 49.43289 | -2.68194 | 1780 ft | 164 kts | 269° |
| 2026-04-19 03:51 | 49.43235 | -2.69948 | 2156 ft | 165 kts | 269° |
| 2026-04-19 03:52 | 49.43182 | -2.71691 | 2549 ft | 165 kts | 270° |
| 2026-04-19 03:52 | 49.43133 | -2.73461 | 2945 ft | 165 kts | 273° |
| 2026-04-19 03:52 | 49.43619 | -2.74960 | 3309 ft | 163 kts | 321° |
| 2026-04-19 03:52 | 49.44699 | -2.75400 | 3681 ft | 170 kts | 4° |
| 2026-04-19 03:53 | 49.45764 | -2.74551 | 4056 ft | 177 kts | 28° |
| 2026-04-19 03:53 | 49.46832 | -2.73644 | 4435 ft | 175 kts | 21° |
| 2026-04-19 03:53 | 49.47899 | -2.72905 | 4925 ft | 168 kts | 19° |
| 2026-04-19 03:53 | 49.48980 | -2.72209 | 5279 ft | 170 kts | 18° |
| 2026-04-19 03:54 | 49.50086 | -2.71522 | 5639 ft | 172 kts | 17° |
| 2026-04-19 03:54 | 49.51190 | -2.70845 | 5997 ft | 173 kts | 16° |
| 2026-04-19 03:54 | 49.52320 | -2.70156 | 6359 ft | 175 kts | 16° |
| 2026-04-19 03:54 | 49.53450 | -2.69469 | 6714 ft | 176 kts | 15° |
| 2026-04-19 03:55 | 49.54588 | -2.68777 | 7065 ft | 178 kts | 15° |
| 2026-04-19 03:55 | 49.55736 | -2.68078 | 7413 ft | 180 kts | 15° |
| 2026-04-19 03:55 | 49.56901 | -2.67369 | 7759 ft | 181 kts | 14° |
| 2026-04-19 03:55 | 49.58078 | -2.66652 | 8102 ft | 183 kts | 14° |
| 2026-04-19 03:56 | 49.59265 | -2.65929 | 8441 ft | 185 kts | 14° |
| 2026-04-19 03:56 | 49.60468 | -2.65196 | 8777 ft | 188 kts | 13° |
| 2026-04-19 03:56 | 49.61681 | -2.64456 | 9110 ft | 190 kts | 13° |
| 2026-04-19 03:56 | 49.62913 | -2.63704 | 9441 ft | 192 kts | 13° |
| 2026-04-19 03:57 | 49.64171 | -2.62936 | 9772 ft | 194 kts | 13° |
| 2026-04-19 03:57 | 49.65431 | -2.62166 | 10096 ft | 197 kts | 13° |
| 2026-04-19 03:57 | 49.66709 | -2.61385 | 10419 ft | 199 kts | 13° |
| 2026-04-19 03:57 | 49.68004 | -2.60593 | 10739 ft | 202 kts | 13° |
| 2026-04-19 03:58 | 49.69301 | -2.59799 | 11053 ft | 205 kts | 13° |
| 2026-04-19 03:58 | 49.70501 | -2.58544 | 11334 ft | 222 kts | 46° |
| 2026-04-19 03:58 | 49.71376 | -2.56563 | 11670 ft | 226 kts | 52° |
| 2026-04-19 03:58 | 49.72222 | -2.54481 | 11983 ft | 229 kts | 53° |
| 2026-04-19 03:59 | 49.73063 | -2.52389 | 12300 ft | 231 kts | 53° |
| 2026-04-19 03:59 | 49.73908 | -2.50281 | 12620 ft | 233 kts | 53° |
| 2026-04-19 03:59 | 49.74764 | -2.48148 | 12939 ft | 235 kts | 53° |
| 2026-04-19 03:59 | 49.75625 | -2.46002 | 13255 ft | 237 kts | 53° |
| 2026-04-19 04:00 | 49.76492 | -2.43839 | 13569 ft | 239 kts | 53° |
| 2026-04-19 04:00 | 49.77377 | -2.41628 | 13886 ft | 241 kts | 53° |
| 2026-04-19 04:00 | 49.78257 | -2.39430 | 14196 ft | 243 kts | 53° |
| 2026-04-19 04:00 | 49.79156 | -2.37181 | 14510 ft | 245 kts | 53° |
| 2026-04-19 04:01 | 49.80052 | -2.34939 | 14818 ft | 247 kts | 53° |
| 2026-04-19 04:01 | 49.81865 | -2.30396 | 15403 ft | 251 kts | 53° |
| 2026-04-19 04:01 | 49.82793 | -2.28066 | 15699 ft | 253 kts | 53° |
| 2026-04-19 04:02 | 49.83717 | -2.25744 | 15990 ft | 255 kts | 53° |
| 2026-04-19 04:02 | 49.84647 | -2.23406 | 16280 ft | 257 kts | 53° |
| 2026-04-19 04:02 | 49.85595 | -2.21020 | 16573 ft | 259 kts | 53° |
| 2026-04-19 04:02 | 49.86538 | -2.18645 | 16862 ft | 261 kts | 53° |
| 2026-04-19 04:03 | 49.87489 | -2.16248 | 17151 ft | 263 kts | 53° |
| 2026-04-19 04:03 | 49.88445 | -2.13834 | 17440 ft | 265 kts | 53° |
| 2026-04-19 04:03 | 49.89421 | -2.11371 | 17731 ft | 267 kts | 53° |
| 2026-04-19 04:03 | 49.90391 | -2.08917 | 18018 ft | 269 kts | 53° |
| 2026-04-19 04:04 | 49.91373 | -2.06434 | 18306 ft | 271 kts | 53° |
| 2026-04-19 04:04 | 49.92357 | -2.03942 | 18592 ft | 273 kts | 53° |
| 2026-04-19 04:04 | 49.93361 | -2.01396 | 18881 ft | 275 kts | 53° |
| 2026-04-19 04:04 | 49.94360 | -1.98861 | 19166 ft | 277 kts | 53° |
| 2026-04-19 04:05 | 49.95367 | -1.96302 | 19450 ft | 279 kts | 53° |
| 2026-04-19 04:05 | 49.96378 | -1.93731 | 19733 ft | 281 kts | 53° |
| 2026-04-19 04:05 | 49.97397 | -1.91137 | 20016 ft | 284 kts | 53° |
| 2026-04-19 04:05 | 49.98421 | -1.88528 | 20297 ft | 286 kts | 53° |
| 2026-04-19 04:06 | 49.99546 | -1.86014 | 20538 ft | 278 kts | 32° |
| 2026-04-19 04:06 | 50.01163 | -1.84783 | 20833 ft | 248 kts | 358° |
| 2026-04-19 04:06 | 50.02840 | -1.84312 | 21134 ft | 243 kts | 352° |
| 2026-04-19 04:06 | 50.04530 | -1.83988 | 21298 ft | 249 kts | 351° |
| 2026-04-19 04:07 | 50.06290 | -1.83712 | 21327 ft | 261 kts | 351° |
| 2026-04-19 04:07 | 50.08133 | -1.83444 | 21331 ft | 272 kts | 351° |
| 2026-04-19 04:07 | 50.10039 | -1.83175 | 21330 ft | 282 kts | 351° |
| 2026-04-19 04:07 | 50.12059 | -1.82895 | 21326 ft | 290 kts | 352° |
| 2026-04-19 04:08 | 50.14152 | -1.82481 | 21292 ft | 311 kts | 4° |
| 2026-04-19 04:08 | 50.16288 | -1.81490 | 21321 ft | 313 kts | 3° |
| 2026-04-19 04:08 | 50.18489 | -1.80551 | 21323 ft | 318 kts | 4° |
| 2026-04-19 04:08 | 50.20697 | -1.79581 | 21321 ft | 322 kts | 4° |
| 2026-04-19 04:09 | 50.22852 | -1.78619 | 21321 ft | 324 kts | 4° |
| 2026-04-19 04:09 | 50.25025 | -1.77643 | 21320 ft | 326 kts | 5° |
| 2026-04-19 04:09 | 50.27196 | -1.76665 | 21320 ft | 328 kts | 5° |
| 2026-04-19 04:09 | 50.29387 | -1.75676 | 21320 ft | 329 kts | 5° |
| 2026-04-19 04:10 | 50.31580 | -1.74686 | 21320 ft | 330 kts | 5° |
| 2026-04-19 04:10 | 50.33779 | -1.73691 | 21320 ft | 331 kts | 5° |
| 2026-04-19 04:10 | 50.36009 | -1.72682 | 21320 ft | 331 kts | 5° |
| 2026-04-19 04:10 | 50.38208 | -1.71686 | 21320 ft | 332 kts | 5° |
| 2026-04-19 04:11 | 50.40421 | -1.70683 | 21320 ft | 332 kts | 5° |
| 2026-04-19 04:11 | 50.42627 | -1.69682 | 21320 ft | 332 kts | 5° |
| 2026-04-19 04:11 | 50.44841 | -1.68676 | 21320 ft | 332 kts | 5° |
| 2026-04-19 04:11 | 50.47076 | -1.67660 | 21321 ft | 333 kts | 5° |
| 2026-04-19 04:12 | 50.49306 | -1.66642 | 21320 ft | 334 kts | 5° |
| 2026-04-19 04:12 | 50.51431 | -1.65067 | 21324 ft | 340 kts | 13° |
| 2026-04-19 04:12 | 50.53628 | -1.63684 | 21321 ft | 339 kts | 11° |
| 2026-04-19 04:12 | 50.55790 | -1.62254 | 21321 ft | 341 kts | 12° |
| 2026-04-19 04:13 | 50.57970 | -1.60767 | 21321 ft | 341 kts | 13° |
| 2026-04-19 04:13 | 50.60127 | -1.59278 | 21322 ft | 341 kts | 13° |
| 2026-04-19 04:13 | 50.62307 | -1.57767 | 21322 ft | 342 kts | 13° |
| 2026-04-19 04:13 | 50.64465 | -1.56268 | 21322 ft | 342 kts | 13° |
| 2026-04-19 04:14 | 50.66631 | -1.54761 | 21322 ft | 342 kts | 13° |
| 2026-04-19 04:14 | 50.68807 | -1.53245 | 21323 ft | 342 kts | 13° |
| 2026-04-19 04:14 | 50.70986 | -1.51725 | 21323 ft | 342 kts | 13° |
| 2026-04-19 04:14 | 50.73157 | -1.50210 | 21323 ft | 342 kts | 13° |
| 2026-04-19 04:15 | 50.75312 | -1.48704 | 21323 ft | 342 kts | 13° |
| 2026-04-19 04:15 | 50.77503 | -1.47172 | 21324 ft | 342 kts | 13° |
| 2026-04-19 04:15 | 50.79658 | -1.45663 | 21324 ft | 342 kts | 13° |
| 2026-04-19 04:15 | 50.81826 | -1.44143 | 21324 ft | 342 kts | 13° |
| 2026-04-19 04:16 | 50.84010 | -1.42611 | 21324 ft | 342 kts | 13° |
| 2026-04-19 04:16 | 50.86161 | -1.41101 | 21325 ft | 342 kts | 13° |
| 2026-04-19 04:16 | 50.88348 | -1.39563 | 21325 ft | 343 kts | 13° |
| 2026-04-19 04:16 | 50.90530 | -1.38027 | 21325 ft | 343 kts | 13° |
| 2026-04-19 04:17 | 50.92700 | -1.36499 | 21325 ft | 343 kts | 13° |
| 2026-04-19 04:17 | 50.94845 | -1.34984 | 21325 ft | 343 kts | 14° |
| 2026-04-19 04:17 | 50.97060 | -1.33616 | 21282 ft | 329 kts | 0° |
| 2026-04-19 04:17 | 50.99300 | -1.32822 | 21312 ft | 330 kts | 2° |
| 2026-04-19 04:18 | 51.01528 | -1.31955 | 21315 ft | 331 kts | 3° |
| 2026-04-19 04:18 | 51.03742 | -1.31053 | 21315 ft | 331 kts | 4° |
| 2026-04-19 04:18 | 51.05960 | -1.30132 | 21315 ft | 331 kts | 4° |
| 2026-04-19 04:18 | 51.08204 | -1.29193 | 21316 ft | 331 kts | 4° |
| 2026-04-19 04:19 | 51.10425 | -1.28261 | 21315 ft | 331 kts | 4° |
| 2026-04-19 04:19 | 51.12376 | -1.27440 | 21313 ft | 331 kts | 4° |
| 2026-04-19 04:19 | 51.14648 | -1.26484 | 21313 ft | 331 kts | 4° |
| 2026-04-19 04:19 | 51.16918 | -1.25527 | 21313 ft | 331 kts | 4° |
| 2026-04-19 04:20 | 51.19154 | -1.24584 | 21313 ft | 331 kts | 4° |
| 2026-04-19 04:20 | 51.21363 | -1.23651 | 21313 ft | 331 kts | 4° |
| 2026-04-19 04:20 | 51.23570 | -1.22718 | 21314 ft | 331 kts | 4° |
| 2026-04-19 04:20 | 51.25811 | -1.21769 | 21314 ft | 331 kts | 4° |
| 2026-04-19 04:21 | 51.28026 | -1.20831 | 21314 ft | 331 kts | 4° |
| 2026-04-19 04:21 | 51.30238 | -1.19893 | 21314 ft | 331 kts | 4° |
| 2026-04-19 04:21 | 51.32448 | -1.18955 | 21314 ft | 331 kts | 4° |
| 2026-04-19 04:21 | 51.34685 | -1.18005 | 21314 ft | 331 kts | 4° |
| 2026-04-19 04:22 | 51.36892 | -1.17066 | 21315 ft | 331 kts | 4° |
| 2026-04-19 04:22 | 51.39109 | -1.16122 | 21315 ft | 331 kts | 4° |
| 2026-04-19 04:22 | 51.41330 | -1.15176 | 21315 ft | 331 kts | 4° |
| 2026-04-19 04:22 | 51.43554 | -1.14226 | 21315 ft | 331 kts | 4° |
| 2026-04-19 04:23 | 51.45768 | -1.13281 | 21315 ft | 331 kts | 4° |
| 2026-04-19 04:23 | 51.47968 | -1.12341 | 21316 ft | 331 kts | 4° |
| 2026-04-19 04:23 | 51.50204 | -1.11382 | 21309 ft | 332 kts | 4° |
| 2026-04-19 04:23 | 51.52445 | -1.10424 | 21316 ft | 333 kts | 4° |
| 2026-04-19 04:24 | 51.54662 | -1.09474 | 21317 ft | 334 kts | 4° |
| 2026-04-19 04:24 | 51.56900 | -1.08514 | 21317 ft | 335 kts | 4° |
| 2026-04-19 04:24 | 51.59166 | -1.07540 | 21317 ft | 336 kts | 4° |
| 2026-04-19 04:24 | 51.61411 | -1.06555 | 21313 ft | 340 kts | 6° |
| 2026-04-19 04:25 | 51.63652 | -1.05623 | 21289 ft | 324 kts | 352° |
| 2026-04-19 04:25 | 51.65892 | -1.05254 | 21318 ft | 327 kts | 354° |
| 2026-04-19 04:25 | 51.68169 | -1.04759 | 21319 ft | 329 kts | 356° |
| 2026-04-19 04:25 | 51.70420 | -1.04215 | 21318 ft | 330 kts | 357° |
| 2026-04-19 04:26 | 51.72677 | -1.03647 | 21318 ft | 330 kts | 357° |
| 2026-04-19 04:26 | 51.74949 | -1.03067 | 21318 ft | 331 kts | 357° |
| 2026-04-19 04:26 | 51.77209 | -1.02487 | 21318 ft | 331 kts | 357° |
| 2026-04-19 04:26 | 51.79484 | -1.01901 | 21318 ft | 331 kts | 357° |
| 2026-04-19 04:27 | 51.81755 | -1.01316 | 21319 ft | 331 kts | 357° |
| 2026-04-19 04:27 | 51.84025 | -1.00753 | 21313 ft | 327 kts | 354° |
| 2026-04-19 04:27 | 51.86186 | -1.01046 | 21333 ft | 307 kts | 337° |
| 2026-04-19 04:27 | 51.88280 | -1.01687 | 21322 ft | 306 kts | 336° |
| 2026-04-19 04:28 | 51.90364 | -1.02357 | 21320 ft | 306 kts | 335° |
| 2026-04-19 04:28 | 51.92449 | -1.03033 | 21319 ft | 306 kts | 335° |
| 2026-04-19 04:28 | 51.94526 | -1.03706 | 21319 ft | 306 kts | 335° |
| 2026-04-19 04:28 | 51.96608 | -1.04383 | 21319 ft | 306 kts | 335° |
| 2026-04-19 04:29 | 51.98686 | -1.05059 | 21319 ft | 306 kts | 335° |
| 2026-04-19 04:29 | 52.00785 | -1.05743 | 21319 ft | 306 kts | 335° |
| 2026-04-19 04:29 | 52.02871 | -1.06423 | 21319 ft | 307 kts | 335° |
| 2026-04-19 04:29 | 52.04965 | -1.07106 | 21319 ft | 307 kts | 335° |
| 2026-04-19 04:30 | 52.07039 | -1.07784 | 21319 ft | 307 kts | 335° |
| 2026-04-19 04:30 | 52.09131 | -1.08468 | 21319 ft | 307 kts | 335° |
| 2026-04-19 04:30 | 52.11238 | -1.09157 | 21315 ft | 307 kts | 335° |
| 2026-04-19 04:30 | 52.13238 | -1.09813 | 21314 ft | 306 kts | 335° |
| 2026-04-19 04:31 | 52.15358 | -1.10508 | 21314 ft | 306 kts | 335° |
| 2026-04-19 04:31 | 52.17451 | -1.11191 | 21313 ft | 307 kts | 336° |
| 2026-04-19 04:31 | 52.19596 | -1.12105 | 21284 ft | 287 kts | 320° |
| 2026-04-19 04:31 | 52.21152 | -1.13312 | 21307 ft | 289 kts | 322° |
| 2026-04-19 04:32 | 52.22994 | -1.14644 | 21313 ft | 291 kts | 323° |
| 2026-04-19 04:32 | 52.24860 | -1.15937 | 21314 ft | 292 kts | 324° |
| 2026-04-19 04:32 | 52.26728 | -1.17211 | 21314 ft | 292 kts | 324° |
| 2026-04-19 04:32 | 52.28606 | -1.18481 | 21314 ft | 292 kts | 324° |
| 2026-04-19 04:33 | 52.30459 | -1.19731 | 21314 ft | 292 kts | 324° |
| 2026-04-19 04:33 | 52.32341 | -1.21000 | 21314 ft | 292 kts | 324° |
| 2026-04-19 04:33 | 52.34229 | -1.22274 | 21314 ft | 292 kts | 324° |
| 2026-04-19 04:33 | 52.36100 | -1.23537 | 21314 ft | 292 kts | 324° |
| 2026-04-19 04:34 | 52.37970 | -1.24800 | 21314 ft | 292 kts | 324° |
| 2026-04-19 04:34 | 52.39853 | -1.26073 | 21314 ft | 292 kts | 324° |
| 2026-04-19 04:34 | 52.41720 | -1.27337 | 21314 ft | 292 kts | 324° |
| 2026-04-19 04:34 | 52.43599 | -1.28610 | 21314 ft | 292 kts | 324° |
| 2026-04-19 04:35 | 52.45458 | -1.29870 | 21314 ft | 292 kts | 324° |
| 2026-04-19 04:35 | 52.47342 | -1.31148 | 21314 ft | 292 kts | 324° |
| 2026-04-19 04:35 | 52.49206 | -1.32414 | 21313 ft | 292 kts | 324° |
| 2026-04-19 04:35 | 52.51088 | -1.33694 | 21313 ft | 292 kts | 324° |
| 2026-04-19 04:36 | 52.52967 | -1.34973 | 21313 ft | 292 kts | 324° |
| 2026-04-19 04:36 | 52.54850 | -1.36179 | 21313 ft | 295 kts | 327° |
| 2026-04-19 04:36 | 52.56792 | -1.37358 | 21314 ft | 295 kts | 327° |
| 2026-04-19 04:36 | 52.58713 | -1.38517 | 21313 ft | 295 kts | 327° |
| 2026-04-19 04:37 | 52.60614 | -1.39664 | 21313 ft | 295 kts | 327° |
| 2026-04-19 04:37 | 52.62543 | -1.40830 | 21313 ft | 295 kts | 327° |
| 2026-04-19 04:37 | 52.64473 | -1.41997 | 21313 ft | 295 kts | 327° |
| 2026-04-19 04:37 | 52.66401 | -1.43163 | 21313 ft | 295 kts | 327° |
| 2026-04-19 04:38 | 52.68314 | -1.44322 | 21313 ft | 295 kts | 327° |
| 2026-04-19 04:38 | 52.70242 | -1.45491 | 21313 ft | 295 kts | 327° |
| 2026-04-19 04:38 | 52.72160 | -1.46654 | 21312 ft | 295 kts | 327° |
| 2026-04-19 04:38 | 52.74079 | -1.47821 | 21315 ft | 296 kts | 327° |
| 2026-04-19 04:39 | 52.76004 | -1.48991 | 21316 ft | 296 kts | 327° |
| 2026-04-19 04:39 | 52.77947 | -1.50173 | 21316 ft | 296 kts | 327° |
| 2026-04-19 04:39 | 52.79877 | -1.51350 | 21316 ft | 297 kts | 327° |
| 2026-04-19 04:39 | 52.81818 | -1.52533 | 21316 ft | 297 kts | 327° |
| 2026-04-19 04:40 | 52.83736 | -1.53703 | 21316 ft | 297 kts | 327° |
| 2026-04-19 04:40 | 52.85670 | -1.54884 | 21316 ft | 297 kts | 327° |
| 2026-04-19 04:40 | 52.87616 | -1.56074 | 21316 ft | 297 kts | 327° |
| 2026-04-19 04:40 | 52.89526 | -1.57243 | 21316 ft | 297 kts | 327° |
| 2026-04-19 04:41 | 52.91479 | -1.58439 | 21316 ft | 297 kts | 327° |
| 2026-04-19 04:41 | 52.93401 | -1.59618 | 21316 ft | 297 kts | 327° |
| 2026-04-19 04:41 | 52.95349 | -1.60814 | 21316 ft | 297 kts | 327° |
| 2026-04-19 04:41 | 52.97278 | -1.61999 | 21316 ft | 297 kts | 327° |
| 2026-04-19 04:42 | 52.99219 | -1.63192 | 21316 ft | 297 kts | 327° |
| 2026-04-19 04:42 | 53.01151 | -1.64382 | 21316 ft | 297 kts | 327° |
| 2026-04-19 04:42 | 53.03076 | -1.65569 | 21324 ft | 297 kts | 326° |
| 2026-04-19 04:42 | 53.05029 | -1.66772 | 21326 ft | 298 kts | 326° |
| 2026-04-19 04:43 | 53.06939 | -1.67952 | 21326 ft | 298 kts | 326° |
| 2026-04-19 04:43 | 53.08885 | -1.69155 | 21326 ft | 298 kts | 326° |
| 2026-04-19 04:43 | 53.10861 | -1.70377 | 21323 ft | 298 kts | 326° |
| 2026-04-19 04:43 | 53.12910 | -1.71647 | 21321 ft | 298 kts | 326° |
| 2026-04-19 04:44 | 53.14941 | -1.72905 | 21320 ft | 298 kts | 326° |
| 2026-04-19 04:44 | 53.16951 | -1.74153 | 21320 ft | 298 kts | 326° |
| 2026-04-19 04:44 | 53.18885 | -1.75354 | 21320 ft | 298 kts | 326° |
| 2026-04-19 04:44 | 53.20813 | -1.76554 | 21320 ft | 298 kts | 326° |
| 2026-04-19 04:45 | 53.22744 | -1.77756 | 21320 ft | 298 kts | 326° |
| 2026-04-19 04:45 | 53.24683 | -1.78965 | 21320 ft | 298 kts | 326° |
| 2026-04-19 04:45 | 53.26629 | -1.80178 | 21320 ft | 298 kts | 326° |
| 2026-04-19 04:45 | 53.28562 | -1.81385 | 21320 ft | 298 kts | 326° |
| 2026-04-19 04:46 | 53.30500 | -1.82597 | 21320 ft | 298 kts | 326° |
| 2026-04-19 04:46 | 53.32431 | -1.83805 | 21320 ft | 298 kts | 326° |
| 2026-04-19 04:46 | 53.34383 | -1.85027 | 21320 ft | 298 kts | 326° |
| 2026-04-19 04:46 | 53.36311 | -1.86235 | 21320 ft | 298 kts | 326° |
| 2026-04-19 04:47 | 53.38235 | -1.87443 | 21320 ft | 298 kts | 326° |
| 2026-04-19 04:47 | 53.40175 | -1.88661 | 21320 ft | 298 kts | 326° |
| 2026-04-19 04:47 | 53.42115 | -1.89881 | 21320 ft | 298 kts | 326° |
| 2026-04-19 04:47 | 53.44056 | -1.91102 | 21320 ft | 298 kts | 326° |
| 2026-04-19 04:48 | 53.45971 | -1.92308 | 21320 ft | 298 kts | 326° |
| 2026-04-19 04:48 | 53.47918 | -1.93536 | 21320 ft | 298 kts | 326° |
| 2026-04-19 04:48 | 53.49866 | -1.94765 | 21320 ft | 298 kts | 326° |
| 2026-04-19 04:48 | 53.51783 | -1.95976 | 21320 ft | 298 kts | 326° |
| 2026-04-19 04:49 | 53.53730 | -1.97207 | 21320 ft | 298 kts | 326° |
| 2026-04-19 04:49 | 53.55664 | -1.98430 | 21320 ft | 298 kts | 326° |
| 2026-04-19 04:49 | 53.57588 | -1.99648 | 21320 ft | 298 kts | 326° |
| 2026-04-19 04:49 | 53.59523 | -2.00875 | 21320 ft | 298 kts | 326° |
| 2026-04-19 04:50 | 53.61467 | -2.02108 | 21320 ft | 298 kts | 326° |
| 2026-04-19 04:50 | 53.63382 | -2.03324 | 21320 ft | 298 kts | 326° |
| 2026-04-19 04:50 | 53.65317 | -2.04554 | 21320 ft | 298 kts | 326° |
| 2026-04-19 04:50 | 53.67251 | -2.05785 | 21320 ft | 298 kts | 326° |
| 2026-04-19 04:51 | 53.69185 | -2.07016 | 21320 ft | 298 kts | 326° |
| 2026-04-19 04:51 | 53.71118 | -2.08249 | 21320 ft | 298 kts | 326° |
| 2026-04-19 04:51 | 53.73047 | -2.09480 | 21320 ft | 298 kts | 326° |
| 2026-04-19 04:51 | 53.74979 | -2.10746 | 21320 ft | 296 kts | 325° |
| 2026-04-19 04:52 | 53.76897 | -2.12045 | 21320 ft | 297 kts | 325° |
| 2026-04-19 04:52 | 53.78796 | -2.13337 | 21320 ft | 297 kts | 325° |
| 2026-04-19 04:52 | 53.80699 | -2.14633 | 21320 ft | 296 kts | 325° |
| 2026-04-19 04:52 | 53.82623 | -2.15945 | 21320 ft | 297 kts | 325° |
| 2026-04-19 04:53 | 53.84520 | -2.17241 | 21320 ft | 297 kts | 325° |
| 2026-04-19 04:53 | 53.86437 | -2.18551 | 21320 ft | 297 kts | 325° |
| 2026-04-19 04:53 | 53.88327 | -2.19844 | 21320 ft | 297 kts | 325° |
| 2026-04-19 04:53 | 53.90265 | -2.21172 | 21313 ft | 300 kts | 325° |
| 2026-04-19 04:54 | 53.92188 | -2.22491 | 21313 ft | 302 kts | 325° |
| 2026-04-19 04:54 | 53.94157 | -2.23843 | 21312 ft | 304 kts | 325° |
| 2026-04-19 04:54 | 53.96104 | -2.25180 | 21312 ft | 306 kts | 325° |
| 2026-04-19 04:54 | 53.98088 | -2.26543 | 21312 ft | 307 kts | 325° |
| 2026-04-19 04:55 | 54.00054 | -2.27896 | 21311 ft | 308 kts | 325° |
| 2026-04-19 04:55 | 54.02031 | -2.29258 | 21311 ft | 309 kts | 325° |
| 2026-04-19 04:55 | 54.04030 | -2.30639 | 21311 ft | 309 kts | 325° |
| 2026-04-19 04:55 | 54.06011 | -2.32009 | 21311 ft | 310 kts | 325° |
| 2026-04-19 04:56 | 54.08017 | -2.33397 | 21311 ft | 310 kts | 325° |
| 2026-04-19 04:56 | 54.09988 | -2.34763 | 21311 ft | 310 kts | 325° |
| 2026-04-19 04:56 | 54.12006 | -2.36163 | 21304 ft | 310 kts | 326° |
| 2026-04-19 04:56 | 54.14005 | -2.37551 | 21302 ft | 310 kts | 325° |
| 2026-04-19 04:57 | 54.15992 | -2.38931 | 21302 ft | 310 kts | 326° |
| 2026-04-19 04:57 | 54.18002 | -2.40326 | 21302 ft | 310 kts | 326° |
| 2026-04-19 04:57 | 54.19969 | -2.41693 | 21302 ft | 310 kts | 326° |
| 2026-04-19 04:57 | 54.21958 | -2.43076 | 21302 ft | 310 kts | 326° |
| 2026-04-19 04:58 | 54.23950 | -2.44463 | 21302 ft | 310 kts | 326° |
| 2026-04-19 04:58 | 54.25945 | -2.45853 | 21302 ft | 309 kts | 326° |
| 2026-04-19 04:58 | 54.27936 | -2.47242 | 21303 ft | 309 kts | 326° |
| 2026-04-19 04:58 | 54.29911 | -2.48621 | 21303 ft | 309 kts | 326° |
| 2026-04-19 04:59 | 54.31907 | -2.50016 | 21303 ft | 309 kts | 326° |
| 2026-04-19 04:59 | 54.33906 | -2.51415 | 21303 ft | 309 kts | 326° |
| 2026-04-19 04:59 | 54.35883 | -2.52800 | 21303 ft | 309 kts | 326° |
| 2026-04-19 04:59 | 54.37877 | -2.54199 | 21303 ft | 309 kts | 326° |
| 2026-04-19 05:00 | 54.39860 | -2.55591 | 21303 ft | 309 kts | 326° |
| 2026-04-19 05:00 | 54.41844 | -2.56985 | 21303 ft | 309 kts | 326° |
| 2026-04-19 05:00 | 54.43826 | -2.58380 | 21303 ft | 310 kts | 326° |
| 2026-04-19 05:00 | 54.45826 | -2.59788 | 21303 ft | 310 kts | 326° |
| 2026-04-19 05:01 | 54.47812 | -2.61188 | 21303 ft | 310 kts | 326° |
| 2026-04-19 05:01 | 54.49794 | -2.62587 | 21303 ft | 310 kts | 326° |
| 2026-04-19 05:01 | 54.51782 | -2.63992 | 21303 ft | 310 kts | 326° |
| 2026-04-19 05:01 | 54.53774 | -2.65402 | 21307 ft | 310 kts | 324° |
| 2026-04-19 05:02 | 54.55856 | -2.66878 | 21312 ft | 310 kts | 324° |
| 2026-04-19 05:02 | 54.57846 | -2.68289 | 21313 ft | 310 kts | 324° |
| 2026-04-19 05:02 | 54.59852 | -2.69714 | 21313 ft | 310 kts | 324° |
| 2026-04-19 05:02 | 54.61840 | -2.71127 | 21313 ft | 310 kts | 324° |
| 2026-04-19 05:03 | 54.63818 | -2.72535 | 21313 ft | 310 kts | 324° |
| 2026-04-19 05:03 | 54.65806 | -2.73951 | 21313 ft | 311 kts | 324° |
| 2026-04-19 05:03 | 54.67807 | -2.75379 | 21313 ft | 311 kts | 324° |
| 2026-04-19 05:03 | 54.69794 | -2.76797 | 21313 ft | 311 kts | 324° |
| 2026-04-19 05:04 | 54.71806 | -2.78235 | 21313 ft | 311 kts | 324° |
| 2026-04-19 05:04 | 54.73792 | -2.79655 | 21313 ft | 311 kts | 324° |
| 2026-04-19 05:04 | 54.75781 | -2.81080 | 21313 ft | 311 kts | 324° |
| 2026-04-19 05:04 | 54.77771 | -2.82507 | 21313 ft | 311 kts | 324° |
| 2026-04-19 05:05 | 54.79780 | -2.83948 | 21313 ft | 311 kts | 324° |
| 2026-04-19 05:05 | 54.81759 | -2.85371 | 21313 ft | 311 kts | 324° |
| 2026-04-19 05:05 | 54.83753 | -2.86805 | 21313 ft | 311 kts | 324° |
| 2026-04-19 05:05 | 54.85748 | -2.88241 | 21313 ft | 311 kts | 324° |
| 2026-04-19 05:06 | 54.87745 | -2.89680 | 21313 ft | 311 kts | 324° |
| 2026-04-19 05:06 | 54.89749 | -2.91127 | 21313 ft | 311 kts | 324° |
| 2026-04-19 05:06 | 54.91746 | -2.92570 | 21313 ft | 311 kts | 324° |
| 2026-04-19 05:06 | 54.93722 | -2.93998 | 21313 ft | 311 kts | 324° |
| 2026-04-19 05:07 | 54.95716 | -2.95441 | 21313 ft | 311 kts | 324° |
| 2026-04-19 05:07 | 54.97716 | -2.96891 | 21313 ft | 311 kts | 324° |
| 2026-04-19 05:07 | 54.99694 | -2.98326 | 21313 ft | 311 kts | 324° |
| 2026-04-19 05:07 | 55.01695 | -2.99779 | 21313 ft | 311 kts | 324° |
| 2026-04-19 05:08 | 55.03699 | -3.01236 | 21314 ft | 311 kts | 324° |
| 2026-04-19 05:08 | 55.07690 | -3.04143 | 21314 ft | 311 kts | 324° |
| 2026-04-19 05:08 | 55.09651 | -3.05608 | 21320 ft | 310 kts | 327° |
| 2026-04-19 05:09 | 55.11675 | -3.07068 | 21314 ft | 308 kts | 328° |
| 2026-04-19 05:09 | 55.13638 | -3.08492 | 21313 ft | 306 kts | 328° |
| 2026-04-19 05:09 | 55.15587 | -3.09914 | 21314 ft | 305 kts | 327° |
| 2026-04-19 05:09 | 55.17530 | -3.11336 | 21314 ft | 304 kts | 327° |
| 2026-04-19 05:10 | 55.19500 | -3.12779 | 21314 ft | 304 kts | 327° |
| 2026-04-19 05:10 | 55.21429 | -3.14196 | 21314 ft | 303 kts | 327° |
| 2026-04-19 05:10 | 55.23365 | -3.15619 | 21315 ft | 303 kts | 327° |
| 2026-04-19 05:10 | 55.25310 | -3.17050 | 21314 ft | 303 kts | 327° |
| 2026-04-19 05:11 | 55.27243 | -3.18473 | 21314 ft | 302 kts | 327° |
| 2026-04-19 05:11 | 55.29194 | -3.19867 | 21303 ft | 308 kts | 332° |
| 2026-04-19 05:11 | 55.31400 | -3.20086 | 21338 ft | 325 kts | 354° |
| 2026-04-19 05:11 | 55.33659 | -3.19811 | 21318 ft | 327 kts | 355° |
| 2026-04-19 05:12 | 55.35892 | -3.19482 | 21315 ft | 327 kts | 356° |
| 2026-04-19 05:12 | 55.38172 | -3.19131 | 21315 ft | 328 kts | 356° |
| 2026-04-19 05:12 | 55.40435 | -3.18780 | 21315 ft | 328 kts | 356° |
| 2026-04-19 05:12 | 55.42708 | -3.18425 | 21315 ft | 328 kts | 356° |
| 2026-04-19 05:13 | 55.44982 | -3.18070 | 21316 ft | 328 kts | 356° |
| 2026-04-19 05:13 | 55.47224 | -3.17719 | 21316 ft | 328 kts | 356° |
| 2026-04-19 05:13 | 55.49510 | -3.17360 | 21315 ft | 328 kts | 356° |
| 2026-04-19 05:13 | 55.51781 | -3.17003 | 21316 ft | 328 kts | 356° |
| 2026-04-19 05:14 | 55.54019 | -3.16652 | 21316 ft | 328 kts | 356° |
| 2026-04-19 05:14 | 55.56299 | -3.16292 | 21316 ft | 328 kts | 356° |
| 2026-04-19 05:14 | 55.58564 | -3.15935 | 21316 ft | 328 kts | 356° |
| 2026-04-19 05:14 | 55.60842 | -3.15576 | 21316 ft | 328 kts | 356° |
| 2026-04-19 05:15 | 55.63081 | -3.15222 | 21316 ft | 328 kts | 356° |
| 2026-04-19 05:15 | 55.65358 | -3.14862 | 21317 ft | 328 kts | 356° |
| 2026-04-19 05:15 | 55.67611 | -3.14506 | 21317 ft | 328 kts | 356° |
| 2026-04-19 05:15 | 55.69889 | -3.14145 | 21316 ft | 328 kts | 356° |
| 2026-04-19 05:16 | 55.72156 | -3.13875 | 21292 ft | 321 kts | 348° |
| 2026-04-19 05:16 | 55.74121 | -3.15124 | 21303 ft | 290 kts | 316° |
| 2026-04-19 05:16 | 55.75299 | -3.17740 | 21303 ft | 266 kts | 285° |
| 2026-04-19 05:16 | 55.75425 | -3.20904 | 21303 ft | 254 kts | 255° |
| 2026-04-19 05:17 | 55.74487 | -3.23513 | 21303 ft | 259 kts | 225° |
| 2026-04-19 05:17 | 55.72782 | -3.24739 | 21313 ft | 277 kts | 197° |
| 2026-04-19 05:17 | 55.71063 | -3.25882 | 21309 ft | 259 kts | 224° |
| 2026-04-19 05:17 | 55.69657 | -3.27847 | 21321 ft | 259 kts | 223° |
| 2026-04-19 05:18 | 55.68230 | -3.29825 | 21318 ft | 260 kts | 223° |
| 2026-04-19 05:18 | 55.66814 | -3.31777 | 21316 ft | 261 kts | 223° |
| 2026-04-19 05:18 | 55.65374 | -3.33760 | 21316 ft | 261 kts | 223° |
| 2026-04-19 05:18 | 55.63943 | -3.35711 | 21313 ft | 262 kts | 221° |
| 2026-04-19 05:19 | 55.62162 | -3.36639 | 21311 ft | 284 kts | 189° |
| 2026-04-19 05:19 | 55.60215 | -3.35618 | 21304 ft | 312 kts | 159° |
| 2026-04-19 05:19 | 55.58651 | -3.32774 | 21302 ft | 337 kts | 129° |
| 2026-04-19 05:19 | 55.57960 | -3.28775 | 21302 ft | 354 kts | 99° |
| 2026-04-19 05:20 | 55.58355 | -3.24431 | 21303 ft | 359 kts | 68° |
| 2026-04-19 05:20 | 55.59754 | -3.20888 | 21303 ft | 352 kts | 38° |
| 2026-04-19 05:20 | 55.61829 | -3.18859 | 21303 ft | 334 kts | 8° |
| 2026-04-19 05:20 | 55.64067 | -3.18149 | 21318 ft | 330 kts | 1° |
| 2026-04-19 05:21 | 55.66335 | -3.17390 | 21317 ft | 333 kts | 4° |
| 2026-04-19 05:21 | 55.68595 | -3.16387 | 21316 ft | 337 kts | 8° |
| 2026-04-19 05:21 | 55.70804 | -3.14969 | 21311 ft | 344 kts | 17° |
| 2026-04-19 05:21 | 55.72815 | -3.12600 | 21327 ft | 349 kts | 30° |
| 2026-04-19 05:22 | 55.75004 | -3.11264 | 21320 ft | 326 kts | 356° |
| 2026-04-19 05:22 | 55.77124 | -3.11920 | 21307 ft | 299 kts | 326° |
| 2026-04-19 05:22 | 55.78606 | -3.14175 | 21305 ft | 272 kts | 295° |
| 2026-04-19 05:22 | 55.79093 | -3.17253 | 21304 ft | 256 kts | 265° |
| 2026-04-19 05:23 | 55.78498 | -3.20119 | 21304 ft | 255 kts | 235° |
| 2026-04-19 05:23 | 55.77013 | -3.21883 | 21304 ft | 271 kts | 205° |
| 2026-04-19 05:23 | 55.75167 | -3.22649 | 21269 ft | 266 kts | 213° |
| 2026-04-19 05:23 | 55.73719 | -3.24561 | 21310 ft | 260 kts | 222° |
| 2026-04-19 05:24 | 55.72279 | -3.26503 | 21315 ft | 261 kts | 223° |
| 2026-04-19 05:24 | 55.70837 | -3.28449 | 21317 ft | 262 kts | 222° |
| 2026-04-19 05:24 | 55.69371 | -3.30414 | 21316 ft | 262 kts | 222° |
| 2026-04-19 05:24 | 55.67925 | -3.32353 | 21316 ft | 263 kts | 222° |
| 2026-04-19 05:25 | 55.66285 | -3.33822 | 21286 ft | 279 kts | 198° |
| 2026-04-19 05:25 | 55.64305 | -3.33407 | 21299 ft | 304 kts | 168° |
| 2026-04-19 05:25 | 55.62555 | -3.31085 | 21302 ft | 329 kts | 138° |
| 2026-04-19 05:25 | 55.61559 | -3.27365 | 21302 ft | 348 kts | 108° |
| 2026-04-19 05:26 | 55.61606 | -3.23036 | 21303 ft | 357 kts | 77° |
| 2026-04-19 05:26 | 55.62717 | -3.19181 | 21303 ft | 354 kts | 47° |
| 2026-04-19 05:26 | 55.64628 | -3.16638 | 21303 ft | 339 kts | 17° |
| 2026-04-19 05:26 | 55.66845 | -3.15845 | 21335 ft | 324 kts | 356° |
| 2026-04-19 05:27 | 55.69100 | -3.15366 | 21319 ft | 329 kts | 1° |
| 2026-04-19 05:27 | 55.71343 | -3.14379 | 21303 ft | 339 kts | 14° |
| 2026-04-19 05:27 | 55.73456 | -3.12489 | 21276 ft | 338 kts | 11° |
| 2026-04-19 05:27 | 55.75669 | -3.12307 | 21296 ft | 311 kts | 339° |
| 2026-04-19 05:28 | 55.77486 | -3.13951 | 21301 ft | 284 kts | 309° |
| 2026-04-19 05:28 | 55.78438 | -3.16809 | 21303 ft | 263 kts | 278° |
| 2026-04-19 05:28 | 55.78300 | -3.19930 | 21304 ft | 256 kts | 248° |
| 2026-04-19 05:28 | 55.77147 | -3.22314 | 21304 ft | 265 kts | 218° |
| 2026-04-19 05:29 | 55.75357 | -3.23246 | 21334 ft | 277 kts | 198° |
| 2026-04-19 05:29 | 55.73718 | -3.24734 | 21354 ft | 260 kts | 223° |
| 2026-04-19 05:29 | 55.72281 | -3.26654 | 21324 ft | 262 kts | 222° |
| 2026-04-19 05:29 | 55.70822 | -3.28606 | 21317 ft | 263 kts | 222° |
| 2026-04-19 05:30 | 55.69356 | -3.30572 | 21316 ft | 263 kts | 222° |
| 2026-04-19 05:30 | 55.67889 | -3.32528 | 21316 ft | 264 kts | 222° |
| 2026-04-19 05:30 | 55.66400 | -3.34413 | 21074 ft | 276 kts | 214° |
| 2026-04-19 05:30 | 55.64442 | -3.34956 | 20672 ft | 300 kts | 182° |
| 2026-04-19 05:31 | 55.62474 | -3.33559 | 20266 ft | 320 kts | 153° |
| 2026-04-19 05:31 | 55.61021 | -3.30447 | 19857 ft | 337 kts | 123° |
| 2026-04-19 05:31 | 55.60519 | -3.26412 | 19458 ft | 347 kts | 93° |
| 2026-04-19 05:31 | 55.61100 | -3.22292 | 19054 ft | 346 kts | 62° |
| 2026-04-19 05:32 | 55.62652 | -3.19112 | 18647 ft | 334 kts | 31° |
| 2026-04-19 05:32 | 55.64695 | -3.17643 | 18268 ft | 317 kts | 5° |
| 2026-04-19 05:32 | 55.66859 | -3.16843 | 17900 ft | 314 kts | 6° |
| 2026-04-19 05:32 | 55.68972 | -3.15895 | 17523 ft | 315 kts | 10° |
| 2026-04-19 05:33 | 55.71017 | -3.14631 | 17146 ft | 317 kts | 18° |
| 2026-04-19 05:33 | 55.72939 | -3.12599 | 16742 ft | 317 kts | 23° |
| 2026-04-19 05:33 | 55.75021 | -3.11933 | 16328 ft | 297 kts | 348° |
| 2026-04-19 05:33 | 55.76849 | -3.13187 | 15929 ft | 276 kts | 317° |
| 2026-04-19 05:34 | 55.77926 | -3.15845 | 15526 ft | 260 kts | 285° |
| 2026-04-19 05:34 | 55.77940 | -3.18946 | 15106 ft | 251 kts | 253° |
| 2026-04-19 05:34 | 55.76942 | -3.21419 | 14574 ft | 253 kts | 220° |
| 2026-04-19 05:34 | 55.75290 | -3.22469 | 14082 ft | 258 kts | 197° |
| 2026-04-19 05:35 | 55.73708 | -3.23746 | 13574 ft | 251 kts | 211° |
| 2026-04-19 05:35 | 55.72150 | -3.25126 | 13059 ft | 251 kts | 206° |
| 2026-04-19 05:35 | 55.70394 | -3.25211 | 12521 ft | 265 kts | 169° |
| 2026-04-19 05:35 | 55.68859 | -3.23363 | 12017 ft | 276 kts | 134° |
| 2026-04-19 05:36 | 55.68118 | -3.20219 | 11491 ft | 283 kts | 99° |
| 2026-04-19 05:36 | 55.68443 | -3.16851 | 10975 ft | 283 kts | 64° |
| 2026-04-19 05:36 | 55.69731 | -3.14316 | 10464 ft | 278 kts | 30° |
| 2026-04-19 05:36 | 55.71528 | -3.13457 | 9946 ft | 268 kts | 355° |
| 2026-04-19 05:37 | 55.73365 | -3.13642 | 9469 ft | 265 kts | 352° |
| 2026-04-19 05:37 | 55.75186 | -3.13132 | 8957 ft | 269 kts | 17° |
| 2026-04-19 05:37 | 55.76904 | -3.11840 | 8455 ft | 269 kts | 22° |
| 2026-04-19 05:37 | 55.78589 | -3.10404 | 7954 ft | 268 kts | 24° |
| 2026-04-19 05:38 | 55.80254 | -3.08961 | 7457 ft | 267 kts | 24° |
| 2026-04-19 05:38 | 55.81910 | -3.07522 | 6970 ft | 265 kts | 24° |
| 2026-04-19 05:38 | 55.83566 | -3.06083 | 6470 ft | 264 kts | 24° |
| 2026-04-19 05:38 | 55.85258 | -3.05010 | 5962 ft | 260 kts | 8° |
| 2026-04-19 05:39 | 55.87019 | -3.04233 | 5458 ft | 259 kts | 7° |
| 2026-04-19 05:39 | 55.88766 | -3.03632 | 4971 ft | 257 kts | 7° |
| 2026-04-19 05:39 | 55.90522 | -3.03059 | 4469 ft | 256 kts | 8° |
| 2026-04-19 05:39 | 55.92255 | -3.02502 | 3980 ft | 254 kts | 8° |
| 2026-04-19 05:40 | 55.94002 | -3.01942 | 3535 ft | 250 kts | 7° |
| 2026-04-19 05:40 | 55.95686 | -3.02029 | 3149 ft | 242 kts | 353° |
| 2026-04-19 05:40 | 55.97313 | -3.02359 | 3007 ft | 227 kts | 351° |
| 2026-04-19 05:40 | 55.98813 | -3.02696 | 2986 ft | 209 kts | 350° |
| 2026-04-19 05:41 | 56.00209 | -3.03015 | 2984 ft | 194 kts | 349° |
| 2026-04-19 05:41 | 56.01423 | -3.03648 | 2965 ft | 175 kts | 318° |
| 2026-04-19 05:41 | 56.02021 | -3.05254 | 3036 ft | 142 kts | 291° |
| 2026-04-19 05:41 | 56.02328 | -3.06797 | 2968 ft | 120 kts | 284° |
| 2026-04-19 05:42 | 56.02542 | -3.08188 | 2993 ft | 117 kts | 282° |
| 2026-04-19 05:42 | 56.02742 | -3.09666 | 3010 ft | 124 kts | 281° |
| 2026-04-19 05:42 | 56.02935 | -3.11215 | 3007 ft | 131 kts | 280° |
| 2026-04-19 05:42 | 56.03044 | -3.12850 | 2947 ft | 139 kts | 260° |
| 2026-04-19 05:43 | 56.02583 | -3.14434 | 2828 ft | 143 kts | 239° |
| 2026-04-19 05:43 | 56.02054 | -3.15926 | 2672 ft | 140 kts | 238° |
| 2026-04-19 05:43 | 56.01530 | -3.17388 | 2482 ft | 140 kts | 238° |
| 2026-04-19 05:43 | 56.01002 | -3.18864 | 2290 ft | 140 kts | 238° |
| 2026-04-19 05:44 | 56.00475 | -3.20338 | 2098 ft | 139 kts | 238° |
| 2026-04-19 05:44 | 55.99969 | -3.21755 | 1904 ft | 133 kts | 238° |
| 2026-04-19 05:44 | 55.99466 | -3.23163 | 1718 ft | 130 kts | 238° |
| 2026-04-19 05:44 | 55.98986 | -3.24507 | 1545 ft | 129 kts | 238° |
| 2026-04-19 05:45 | 55.98505 | -3.25853 | 1372 ft | 128 kts | 238° |
| 2026-04-19 05:45 | 55.98122 | -3.27284 | 1191 ft | 127 kts | 249° |
| 2026-04-19 05:45 | 55.97792 | -3.28734 | 1050 ft | 125 kts | 247° |
| 2026-04-19 05:45 | 55.97396 | -3.30095 | 886 ft | 125 kts | 240° |
| 2026-04-19 05:46 | 55.96955 | -3.31423 | 694 ft | 121 kts | 240° |
| 2026-04-19 05:46 | 55.96541 | -3.32705 | 536 ft | 115 kts | 240° |
| 2026-04-19 05:46 | 55.96132 | -3.33871 | 386 ft | 108 kts | 239° |
| 2026-04-19 05:46 | 55.95761 | -3.34983 | 247 ft | 102 kts | 240° |
| 2026-04-19 05:47 | 55.95394 | -3.36068 | 125 ft | 98 kts | 239° |
| 2026-04-19 05:47 | 55.95083 | -3.36988 | 98 ft | 72 kts | 239° |
| 2026-04-19 05:47 | 55.94868 | -3.37629 | 98 ft | 49 kts | 239° |
| 2026-04-19 05:47 | 55.94734 | -3.38029 | 101 ft | 17 kts | 228° |
| 2026-04-19 05:48 | 55.94633 | -3.38002 | 103 ft | 15 kts | 150° |
| 2026-04-19 05:48 | 55.94596 | -3.37858 | 104 ft | 18 kts | 60° |
| 2026-04-19 05:48 | 55.94685 | -3.37602 | 101 ft | 25 kts | 59° |
| 2026-04-19 05:48 | 55.94774 | -3.37343 | 99 ft | 23 kts | 59° |
| 2026-04-19 05:49 | 55.94851 | -3.37112 | 101 ft | 20 kts | 58° |
| 2026-04-19 05:49 | 55.94928 | -3.36896 | 100 ft | 20 kts | 59° |
| 2026-04-19 05:49 | 55.94998 | -3.36680 | 101 ft | 19 kts | 59° |
| 2026-04-19 05:49 | 55.95078 | -3.36447 | 101 ft | 24 kts | 59° |
| 2026-04-19 05:50 | 55.95129 | -3.36190 | 101 ft | 21 kts | 108° |
| 2026-04-19 05:50 | 55.95073 | -3.35945 | 102 ft | 20 kts | 118° |
| 2026-04-19 05:50 | 55.94971 | -3.35882 | 104 ft | 18 kts | 188° |
| 2026-04-19 05:50 | 55.94882 | -3.35691 | 105 ft | 21 kts | 119° |
| 2026-04-19 05:51 | 55.94797 | -3.35684 | 105 ft | 0 kts | 210° |